Time;durP1;ratioP1;P1;durP2;ratioP2;P2;SDS_P1;SDS_P2;PMS_P1;PMS_P2;Temp;Humidity;BMP_temperature;BMP_pressure;BME280_temperature;BME280_humidity;BME280_pressure;Samples;Min_cycle;Max_cycle;Signal;HPM_P1;HPM_P2
2022/09/28 00:01:39;;;;;;;4.12;2.12;;;;;;;18.33;75.04;100295.25;1900720;75;21105;-62
2022/09/28 00:04:07;;;;;;;4.35;1.60;;;;;;;18.32;74.98;100287.75;1900710;75;21031;-62
2022/09/28 00:06:36;;;;;;;3.60;1.50;;;;;;;18.34;74.92;100276.97;1900763;75;21163;-61
2022/09/28 00:09:06;;;;;;;5.95;1.62;;;;;;;18.32;74.82;100255.77;1900738;75;21144;-61
2022/09/28 00:11:34;;;;;;;4.22;1.57;;;;;;;18.31;74.76;100247.89;1900632;75;21175;-62
2022/09/28 00:14:06;;;;;;;4.08;1.57;;;;;;;18.29;74.66;100240.01;1900846;75;21023;-61
2022/09/28 00:16:36;;;;;;;2.33;1.67;;;;;;;18.26;74.59;100240.28;1900775;75;21034;-61
2022/09/28 00:19:07;;;;;;;5.42;1.65;;;;;;;18.23;74.48;100231.67;1900807;75;21035;-61
2022/09/28 00:21:38;;;;;;;3.42;1.57;;;;;;;18.17;74.56;100230.34;1900720;75;21027;-62
2022/09/28 00:24:11;;;;;;;8.20;1.87;;;;;;;18.13;74.71;100235.06;1900581;75;21079;-63
2022/09/28 00:26:43;;;;;;;4.17;1.90;;;;;;;18.09;74.86;100244.27;1900866;75;21039;-61
2022/09/28 00:29:21;;;;;;;6.17;2.10;;;;;;;18.08;75.62;100271.88;1900751;75;21055;-61
2022/09/28 00:31:52;;;;;;;6.12;2.50;;;;;;;18.06;77.25;100279.63;1900747;75;21108;-62
2022/09/28 00:34:21;;;;;;;6.50;2.40;;;;;;;18.08;78.56;100297.18;1900640;75;21031;-62
2022/09/28 00:36:50;;;;;;;5.87;3.00;;;;;;;18.11;79.72;100308.94;1900803;75;21035;-61
2022/09/28 00:39:18;;;;;;;8.40;3.08;;;;;;;18.16;80.06;100314.39;1900722;75;21120;-61
2022/09/28 00:41:49;;;;;;;9.05;2.62;;;;;;;18.18;80.05;100322.62;1900814;75;21183;-61
2022/09/28 00:44:32;;;;;;;3.52;2.02;;;;;;;18.21;80.26;100318.89;1900669;75;21097;-61
2022/09/28 00:47:24;;;;;;;5.72;2.20;;;;;;;18.23;80.14;100331.11;1900760;75;21035;-61
2022/09/28 00:49:56;;;;;;;6.08;2.08;;;;;;;18.23;79.95;100332.44;1900701;75;21113;-62
2022/09/28 00:52:30;;;;;;;4.90;2.77;;;;;;;18.25;79.61;100316.34;1900489;74;21093;-62
2022/09/28 00:55:01;;;;;;;7.47;2.65;;;;;;;18.28;79.36;100325.44;1899827;74;21058;-61
2022/09/28 00:57:32;;;;;;;4.12;2.10;;;;;;;18.27;79.09;100326.39;1900601;74;21469;-62
2022/09/28 01:00:02;;;;;;;4.87;2.25;;;;;;;18.27;78.88;100317.91;1900896;75;21022;-61
2022/09/28 01:02:31;;;;;;;4.95;2.17;;;;;;;18.27;78.71;100318.39;1900727;75;21457;-61
2022/09/28 01:05:01;;;;;;;8.08;2.67;;;;;;;18.25;78.89;100325.66;1900684;75;21435;-61
2022/09/28 01:07:32;;;;;;;6.78;2.40;;;;;;;18.22;79.19;100323.23;1900810;75;21422;-61
2022/09/28 01:10:01;;;;;;;7.12;1.98;;;;;;;18.17;79.70;100326.27;1900611;74;21003;-61
2022/09/28 01:12:30;;;;;;;4.05;1.77;;;;;;;18.13;79.68;100308.34;1900893;75;21137;-61
2022/09/28 01:15:00;;;;;;;6.60;2.58;;;;;;;18.10;79.44;100309.89;1900780;75;21109;-61
2022/09/28 01:17:38;;;;;;;3.35;2.02;;;;;;;18.09;79.18;100315.34;1900942;75;21027;-62
2022/09/28 01:20:28;;;;;;;4.55;2.20;;;;;;;18.07;78.89;100302.13;1901722;73;21176;-63
2022/09/28 01:23:27;;;;;;;6.03;1.60;;;;;;;18.04;78.72;100313.05;1895345;74;21070;-61
2022/09/28 01:26:16;;;;;;;3.30;1.70;;;;;;;18.06;79.52;100343.08;1900845;75;21384;-61
2022/09/28 01:28:48;;;;;;;4.08;1.70;;;;;;;18.07;79.07;100322.11;1900683;75;21481;-61
2022/09/28 01:31:18;;;;;;;7.42;1.85;;;;;;;18.08;78.79;100311.83;1900808;75;21082;-61
2022/09/28 01:33:50;;;;;;;2.22;1.55;;;;;;;18.06;78.61;100322.26;1900865;75;21078;-61
2022/09/28 01:36:36;;;;;;;4.42;1.60;;;;;;;18.05;78.53;100293.41;1901756;73;21109;-61
2022/09/28 01:39:11;;;;;;;4.42;2.30;;;;;;;18.02;78.49;100286.14;1901154;74;21059;-62
2022/09/28 01:41:43;;;;;;;5.47;2.50;;;;;;;17.99;78.46;100299.23;1901264;74;21027;-61
2022/09/28 01:44:15;;;;;;;4.10;1.90;;;;;;;17.99;79.45;100314.37;1900957;75;21083;-62
2022/09/28 01:46:49;;;;;;;4.10;2.08;;;;;;;18.00;80.90;100343.55;1900931;75;21023;-62
2022/09/28 01:49:27;;;;;;;4.53;2.05;;;;;;;18.03;80.62;100345.13;1900720;74;21038;-63
2022/09/28 01:52:07;;;;;;;5.62;2.30;;;;;;;18.06;80.71;100333.75;1900767;75;21023;-62
2022/09/28 01:55:00;;;;;;;3.67;1.62;;;;;;;18.12;80.89;100317.28;1878272;75;21051;-62
2022/09/28 01:57:37;;;;;;;8.93;2.47;;;;;;;18.16;80.70;100330.38;1855078;76;21077;-61
2022/09/28 02:00:09;;;;;;;4.90;1.90;;;;;;;18.17;80.66;100338.26;1898398;75;21062;-61
2022/09/28 02:02:52;;;;;;;5.00;2.00;;;;;;;18.18;81.05;100349.76;1910234;75;21022;-62
2022/09/28 02:05:31;;;;;;;3.33;1.82;;;;;;;18.19;81.28;100354.12;1910227;75;21050;-61
2022/09/28 02:08:19;;;;;;;3.92;2.20;;;;;;;18.19;81.18;100364.30;1910248;75;21019;-62
2022/09/28 02:11:07;;;;;;;5.70;1.70;;;;;;;18.21;81.35;100354.86;1909621;74;21509;-62
2022/09/28 02:13:42;;;;;;;5.00;2.17;;;;;;;18.21;81.12;100342.87;1910222;75;21495;-61
2022/09/28 02:16:44;;;;;;;4.72;1.92;;;;;;;18.19;80.89;100334.14;1910611;73;21177;-61
2022/09/28 02:19:15;;;;;;;3.90;1.70;;;;;;;18.17;80.65;100336.05;1910287;75;21062;-61
2022/09/28 02:21:47;;;;;;;4.10;1.62;;;;;;;18.12;80.45;100317.28;1910061;75;21058;-61
2022/09/28 02:24:25;;;;;;;6.62;1.82;;;;;;;18.08;80.21;100315.83;1910129;75;21524;-62
2022/09/28 02:27:14;;;;;;;5.00;1.87;;;;;;;18.04;80.10;100321.03;1910353;73;21437;-62
2022/09/28 02:29:43;;;;;;;4.78;1.60;;;;;;;17.99;80.00;100317.88;1875218;76;21457;-60
2022/09/28 02:32:12;;;;;;;6.08;1.80;;;;;;;17.94;79.93;100311.58;1875025;76;21121;-60
2022/09/28 02:34:41;;;;;;;3.77;1.92;;;;;;;17.89;79.94;100309.75;1875170;76;21102;-61
2022/09/28 02:37:10;;;;;;;8.10;2.22;;;;;;;17.85;79.96;100302.09;1874946;76;21043;-61
2022/09/28 02:39:39;;;;;;;6.00;2.30;;;;;;;17.81;80.02;100292.62;1874984;76;21055;-61
2022/09/28 02:42:13;;;;;;;3.35;1.70;;;;;;;17.76;80.09;100282.30;1875018;76;21086;-61
2022/09/28 02:44:45;;;;;;;5.97;2.37;;;;;;;17.72;80.13;100281.72;1874952;76;21046;-61
2022/09/28 02:47:36;;;;;;;10.28;2.75;;;;;;;17.68;80.17;100274.91;1874690;76;21091;-61
2022/09/28 02:50:34;;;;;;;3.90;3.00;;;;;;;17.62;80.21;100268.73;1875008;76;21215;-61
2022/09/28 02:53:26;;;;;;;4.78;2.27;;;;;;;17.58;80.27;100268.60;1875090;76;21026;-61
2022/09/28 02:56:00;;;;;;;5.37;2.25;;;;;;;17.53;80.33;100258.78;1874923;76;21540;-61
2022/09/28 02:58:32;;;;;;;6.00;2.47;;;;;;;17.50;80.40;100251.02;1875175;76;21681;-61
2022/09/28 03:01:16;;;;;;;16.70;3.40;;;;;;;17.47;80.48;100250.78;1874228;76;21069;-62
2022/09/28 03:03:47;;;;;;;5.53;2.30;;;;;;;17.47;80.60;100241.95;1868883;76;21047;-63
2022/09/28 03:06:31;;;;;;;5.62;2.80;;;;;;;17.48;80.94;100250.28;1871912;76;21051;-62
2022/09/28 03:09:02;;;;;;;5.17;2.55;;;;;;;17.49;80.99;100252.00;1874961;76;21043;-62
2022/09/28 03:11:38;;;;;;;5.30;3.00;;;;;;;17.49;80.82;100262.16;1875112;76;21082;-62
2022/09/28 03:14:09;;;;;;;6.72;3.08;;;;;;;17.46;80.73;100265.03;1875030;76;21091;-62
2022/09/28 03:16:44;;;;;;;8.08;2.77;;;;;;;17.44;80.75;100260.80;1873693;76;21177;-62
2022/09/28 03:19:12;;;;;;;;;;;;;;;17.41;80.82;100261.90;1877673;76;21612;-63
2022/09/28 03:21:41;;;;;;;5.42;3.00;;;;;;;17.37;80.82;100268.39;1874982;76;20105;-62
2022/09/28 03:24:11;;;;;;;11.55;3.33;;;;;;;17.33;80.68;100279.74;1875012;76;21501;-62
2022/09/28 03:26:41;;;;;;;8.63;3.05;;;;;;;17.32;80.93;100283.38;1874950;76;21074;-62
2022/09/28 03:29:10;;;;;;;6.37;2.80;;;;;;;17.32;81.10;100278.06;1873134;76;21094;-63
2022/09/28 03:31:39;;;;;;;8.35;3.08;;;;;;;17.30;81.16;100265.81;1871830;77;21152;-62
2022/09/28 03:34:08;;;;;;;4.50;2.50;;;;;;;17.28;81.18;100240.69;1871832;77;21125;-62
2022/09/28 03:36:37;;;;;;;5.60;2.35;;;;;;;17.26;81.15;100226.62;1871902;77;21055;-61
2022/09/28 03:39:06;;;;;;;7.00;2.92;;;;;;;17.24;81.18;100241.85;1871835;77;21555;-61
2022/09/28 03:41:37;;;;;;;10.78;3.02;;;;;;;17.22;81.19;100265.06;1871955;77;21070;-62
2022/09/28 03:44:09;;;;;;;7.70;2.67;;;;;;;17.19;81.29;100269.30;1871730;77;21063;-62
2022/09/28 03:46:38;;;;;;;;;;;;;;;17.17;81.38;100270.74;1874712;77;21071;-62
2022/09/28 03:49:10;;;;;;;8.53;3.25;;;;;;;17.15;81.36;100274.00;1871897;77;20454;-62
2022/09/28 03:51:38;;;;;;;12.35;5.03;;;;;;;17.13;81.20;100251.12;1871875;77;21078;-62
2022/09/28 03:54:07;;;;;;;17.70;7.95;;;;;;;17.12;81.33;100256.09;1871913;77;21120;-62
2022/09/28 03:56:36;;;;;;;11.93;5.83;;;;;;;17.10;81.54;100281.95;1871789;77;21067;-62
2022/09/28 03:59:05;;;;;;;15.72;6.65;;;;;;;17.11;81.97;100295.61;1871939;77;21066;-62
2022/09/28 04:01:34;;;;;;;19.40;7.83;;;;;;;17.13;82.17;100295.88;1871989;77;21063;-62
2022/09/28 04:04:03;;;;;;;25.20;9.83;;;;;;;17.17;82.27;100291.16;1872086;77;21489;-62
2022/09/28 04:06:32;;;;;;;19.00;8.40;;;;;;;17.17;82.31;100290.70;1872021;77;21509;-62
2022/09/28 04:09:01;;;;;;;13.55;6.03;;;;;;;17.20;82.34;100282.95;1871875;77;21133;-62
2022/09/28 04:11:30;;;;;;;12.82;5.53;;;;;;;17.20;82.31;100292.27;1871913;77;21512;-62
2022/09/28 04:13:59;;;;;;;22.52;11.93;;;;;;;17.22;82.33;100290.34;1872112;77;21148;-62
2022/09/28 04:16:29;;;;;;;34.88;15.20;;;;;;;17.23;82.34;100288.55;1871993;77;21567;-62
2022/09/28 04:19:06;;;;;;;22.02;11.75;;;;;;;17.23;82.33;100269.44;1869989;77;21091;-61
2022/09/28 04:21:58;;;;;;;18.95;8.60;;;;;;;17.21;82.37;100251.41;1871898;77;21042;-63
2022/09/28 04:24:29;;;;;;;12.20;5.92;;;;;;;17.22;82.32;100274.87;1871895;77;21086;-63
2022/09/28 04:29:14;;;;;;;11.40;6.03;;;;;;;17.20;82.39;100281.63;1871913;77;21482;-62
2022/09/28 04:29:30;;;;;;;12.78;5.40;;;;;;;17.21;82.44;100277.14;1865731;76;21604;-62
2022/09/28 04:32:00;;;;;;;14.93;6.03;;;;;;;17.23;82.45;100268.11;1868084;76;21689;-62
2022/09/28 04:34:37;;;;;;;17.57;8.38;;;;;;;17.25;82.48;100247.55;1861291;77;21052;-61
2022/09/28 04:37:06;;;;;;;19.50;8.33;;;;;;;17.26;82.48;100243.91;1868662;77;21064;-62
2022/09/28 04:39:35;;;;;;;19.00;6.75;;;;;;;17.27;82.48;100265.58;1868679;76;21099;-62
2022/09/28 04:42:04;;;;;;;15.35;7.20;;;;;;;17.27;82.58;100279.38;1868555;76;21041;-62
2022/09/28 04:44:33;;;;;;;15.83;7.08;;;;;;;17.25;82.72;100286.12;1868541;76;21182;-62
2022/09/28 04:47:06;;;;;;;19.65;6.45;;;;;;;17.27;82.85;100292.19;1868341;76;21056;-62
2022/09/28 04:49:46;;;;;;;11.30;5.75;;;;;;;17.30;82.95;100286.64;1864877;76;21138;-62
2022/09/28 04:52:22;;;;;;;12.45;5.15;;;;;;;17.36;83.03;100284.84;1867826;76;21138;-62
2022/09/28 04:54:51;;;;;;;13.20;5.70;;;;;;;17.42;83.06;100274.71;1868465;76;21119;-62
2022/09/28 04:57:20;;;;;;;18.42;8.00;;;;;;;17.48;83.03;100275.57;1868584;76;21186;-62
2022/09/28 04:59:49;;;;;;;13.83;5.58;;;;;;;17.52;82.97;100277.03;1868536;77;21154;-61
2022/09/28 05:02:19;;;;;;;8.88;4.22;;;;;;;17.58;82.93;100284.58;1868508;76;21559;-62
2022/09/28 05:04:57;;;;;;;9.70;4.80;;;;;;;17.61;82.90;100288.80;1868513;76;21048;-62
2022/09/28 05:07:44;;;;;;;16.25;5.17;;;;;;;17.64;82.85;100287.25;1866540;76;21108;-62
2022/09/28 05:10:12;;;;;;;10.55;4.62;;;;;;;17.65;82.81;100306.23;1868872;76;21118;-63
2022/09/28 05:12:41;;;;;;;9.85;4.22;;;;;;;17.64;82.80;100302.73;1868640;76;21511;-62
2022/09/28 05:15:11;;;;;;;13.58;5.58;;;;;;;17.64;82.76;100283.25;1868551;77;21527;-62
2022/09/28 05:17:40;;;;;;;10.20;5.05;;;;;;;17.63;82.72;100295.73;1868557;76;21020;-63
2022/09/28 05:20:13;;;;;;;12.80;6.50;;;;;;;17.60;82.67;100305.27;1867406;76;21123;-62
2022/09/28 05:22:42;;;;;;;10.20;3.52;;;;;;;17.56;82.63;100297.99;1868690;76;21068;-62
2022/09/28 05:25:11;;;;;;;10.38;4.50;;;;;;;17.53;82.54;100286.73;1868508;76;21041;-63
2022/09/28 05:27:41;;;;;;;12.18;4.15;;;;;;;17.50;82.46;100286.95;1866702;76;21134;-63
2022/09/28 05:30:12;;;;;;;15.48;5.03;;;;;;;17.48;82.40;100278.23;1866480;76;21100;-63
2022/09/28 05:32:49;;;;;;;8.33;3.50;;;;;;;17.43;82.32;100290.57;1830422;76;21072;-62
2022/09/28 05:35:29;;;;;;;8.65;4.40;;;;;;;17.43;82.23;100301.22;1867729;76;21119;-63
2022/09/28 05:38:04;;;;;;;13.98;5.95;;;;;;;17.42;82.19;100292.85;1868531;77;21507;-61
2022/09/28 05:40:34;;;;;;;19.25;8.05;;;;;;;17.40;82.21;100291.28;1868517;77;21048;-61
2022/09/28 05:43:03;;;;;;;13.55;5.55;;;;;;;17.39;82.17;100294.89;1868554;76;21127;-61
2022/09/28 05:45:33;;;;;;;11.90;5.78;;;;;;;17.39;82.09;100301.55;1868587;76;21052;-61
2022/09/28 05:48:03;;;;;;;9.50;3.95;;;;;;;17.38;82.04;100294.54;1868432;76;21507;-60
2022/09/28 05:50:32;;;;;;;9.98;4.08;;;;;;;17.39;81.99;100302.88;1868488;77;21080;-60
2022/09/28 05:53:07;;;;;;;8.85;3.92;;;;;;;17.39;81.98;100298.88;1868508;77;21138;-61
2022/09/28 05:55:38;;;;;;;10.35;3.33;;;;;;;17.40;81.95;100296.11;1868462;77;21113;-61
2022/09/28 05:58:07;;;;;;;5.30;2.58;;;;;;;17.43;81.90;100301.67;1868703;77;21036;-61
2022/09/28 06:00:36;;;;;;;13.72;3.17;;;;;;;17.44;81.82;100292.74;1868684;77;21111;-61
2022/09/28 06:03:08;;;;;;;4.70;2.20;;;;;;;17.43;81.89;100282.59;1868798;76;21111;-61
2022/09/28 06:05:43;;;;;;;10.50;3.05;;;;;;;17.47;81.86;100288.53;1868697;77;21052;-61
2022/09/28 06:08:10;;;;;;;9.20;2.75;;;;;;;17.51;81.80;100293.98;1867091;76;21598;-61
2022/09/28 06:10:40;;;;;;;6.15;3.00;;;;;;;17.54;81.76;100297.75;1868318;76;21080;-61
2022/09/28 06:13:10;;;;;;;7.08;2.17;;;;;;;17.56;81.71;100290.01;1868713;77;21084;-61
2022/09/28 06:15:43;;;;;;;28.57;8.38;;;;;;;17.55;81.70;100286.12;1868769;77;21111;-61
2022/09/28 06:18:14;;;;;;;13.98;5.78;;;;;;;17.54;81.67;100289.77;1868563;77;21123;-61
2022/09/28 06:20:44;;;;;;;44.60;15.72;;;;;;;17.54;81.58;100281.78;1864447;77;21470;-61
2022/09/28 06:23:17;;;;;;;21.95;8.70;;;;;;;17.55;81.42;100288.78;1868833;77;21061;-61
2022/09/28 06:25:46;;;;;;;54.08;18.90;;;;;;;17.53;81.35;100280.91;1868658;76;21183;-61
2022/09/28 06:28:17;;;;;;;76.97;24.80;;;;;;;17.51;81.21;100280.67;1868628;76;21065;-61
2022/09/28 06:30:46;;;;;;;77.55;21.20;;;;;;;17.51;81.09;100283.34;1869464;76;21123;-61
2022/09/28 06:33:17;;;;;;;30.88;11.48;;;;;;;17.51;80.99;100295.31;1871884;76;21190;-61
2022/09/28 06:35:46;;;;;;;31.52;10.60;;;;;;;17.51;80.92;100303.30;1872024;77;21045;-61
2022/09/28 06:38:15;;;;;;;29.12;10.82;;;;;;;17.50;80.85;100299.80;1871954;77;21146;-61
2022/09/28 06:40:44;;;;;;;25.92;8.83;;;;;;;17.53;80.88;100298.21;1871955;77;21072;-61
2022/09/28 06:43:14;;;;;;;26.40;8.95;;;;;;;17.55;80.85;100286.97;1871928;77;21139;-61
2022/09/28 06:46:02;;;;;;;23.92;8.73;;;;;;;17.58;80.85;100293.89;1871928;77;21625;-61
2022/09/28 06:48:33;;;;;;;23.20;8.33;;;;;;;17.59;80.81;100298.23;1866973;77;21567;-61
2022/09/28 06:51:02;;;;;;;23.57;8.45;;;;;;;17.60;80.92;100295.11;1872070;77;21116;-61
2022/09/28 06:53:35;;;;;;;32.20;8.83;;;;;;;17.62;80.93;100290.02;1871062;77;21171;-61
2022/09/28 06:56:11;;;;;;;27.45;7.72;;;;;;;17.63;80.97;100289.08;1871063;77;21148;-62
2022/09/28 06:58:40;;;;;;;21.57;7.90;;;;;;;17.65;80.97;100292.92;1871973;77;21178;-61
2022/09/28 07:01:10;;;;;;;23.47;7.83;;;;;;;17.67;80.90;100287.87;1872123;77;21036;-61
2022/09/28 07:03:41;;;;;;;23.18;7.87;;;;;;;17.69;80.80;100279.28;1869075;77;21104;-61
2022/09/28 07:06:28;;;;;;;99.90;29.98;;;;;;;17.74;80.71;100281.58;1871850;77;21188;-61
2022/09/28 07:09:10;;;;;;;;;;;;;;;17.78;80.60;100289.72;1870353;77;21095;-61
2022/09/28 07:11:43;;;;;;;29.70;10.70;;;;;;;17.82;80.50;100300.50;1871434;76;20153;-61
2022/09/28 07:14:14;;;;;;;32.25;10.25;;;;;;;17.84;80.32;100272.42;1868471;77;21056;-61
2022/09/28 07:16:43;;;;;;;30.08;11.00;;;;;;;17.86;80.28;100254.53;1871823;76;21076;-61
2022/09/28 07:19:15;;;;;;;21.97;8.63;;;;;;;17.85;80.23;100255.48;1871894;77;21495;-60
2022/09/28 07:21:43;;;;;;;23.83;9.63;;;;;;;17.86;80.18;100267.85;1871936;77;21122;-61
2022/09/28 07:24:13;;;;;;;28.40;11.35;;;;;;;17.85;80.14;100276.30;1871908;77;21065;-61
2022/09/28 07:26:52;;;;;;;21.27;8.78;;;;;;;17.86;80.17;100275.35;1862681;77;21154;-61
2022/09/28 07:29:42;;;;;;;24.85;10.95;;;;;;;17.86;80.15;100282.50;1868838;77;21102;-62
2022/09/28 07:32:27;;;;;;;28.80;14.68;;;;;;;17.86;80.14;100286.00;1875363;76;21076;-62
2022/09/28 07:35:14;;;;;;;22.85;9.50;;;;;;;17.86;80.21;100275.84;1881044;76;21056;-61
2022/09/28 07:38:02;;;;;;;15.78;7.92;;;;;;;17.87;80.17;100272.19;1879368;76;21072;-62
2022/09/28 07:43:11;;;;;;;15.25;7.50;;;;;;;17.93;80.04;100277.06;1833828;76;21115;-63
2022/09/28 07:45:43;;;;;;;24.45;9.98;;;;;;;17.97;79.84;100279.02;1881059;76;21644;-62
2022/09/28 07:48:15;;;;;;;26.85;11.20;;;;;;;18.01;79.59;100283.12;1879943;76;21139;-62
2022/09/28 07:50:55;;;;;;;20.37;9.00;;;;;;;18.06;79.36;100284.95;1787349;80;21143;-62
2022/09/28 07:53:37;;;;;;;20.75;9.98;;;;;;;18.19;79.11;100300.34;1880572;76;21100;-62
2022/09/28 07:56:16;;;;;;;25.00;9.45;;;;;;;18.41;78.80;100312.00;1877391;76;21494;-63
2022/09/28 07:58:48;;;;;;;24.12;9.15;;;;;;;18.69;78.57;100294.16;1878579;76;21081;-63
2022/09/28 08:01:21;;;;;;;25.40;10.63;;;;;;;18.94;78.18;100295.36;1843952;76;21133;-62
2022/09/28 08:03:55;;;;;;;23.10;9.00;;;;;;;19.18;77.55;100296.50;1881030;76;21087;-63
2022/09/28 08:06:22;;;;;;;23.98;10.50;;;;;;;19.35;76.60;100292.43;1880920;76;21142;-63
2022/09/28 08:08:55;;;;;;;28.40;10.90;;;;;;;19.43;75.37;100289.49;1881063;76;21120;-63
2022/09/28 08:11:23;;;;;;;22.52;10.18;;;;;;;19.50;74.93;100289.84;1854080;76;21134;-63
2022/09/28 08:14:03;;;;;;;31.10;12.33;;;;;;;19.58;74.91;100282.52;1849167;77;21074;-62
2022/09/28 08:16:44;;;;;;;28.73;11.83;;;;;;;19.58;74.80;100284.69;1848744;77;21054;-62
2022/09/28 08:19:16;;;;;;;18.92;8.03;;;;;;;19.62;74.57;100277.27;1879508;76;21170;-63
2022/09/28 08:21:45;;;;;;;17.77;6.85;;;;;;;19.68;74.41;100272.27;1881065;76;21084;-63
2022/09/28 08:24:16;;;;;;;15.03;6.28;;;;;;;19.80;74.28;100268.22;1881224;76;21455;-62
2022/09/28 08:26:46;;;;;;;12.47;5.50;;;;;;;19.91;73.86;100269.98;1881097;76;21111;-63
2022/09/28 08:29:16;;;;;;;14.90;6.42;;;;;;;20.01;73.14;100265.05;1881049;76;21052;-62
2022/09/28 08:31:49;;;;;;;13.50;5.30;;;;;;;20.27;72.79;100257.94;1877319;76;21117;-62
2022/09/28 08:34:20;;;;;;;15.48;6.60;;;;;;;20.52;72.32;100260.61;1868415;77;21088;-62
2022/09/28 08:36:50;;;;;;;15.35;6.45;;;;;;;20.75;71.98;100265.77;1867586;76;21596;-62
2022/09/28 08:39:30;;;;;;;9.68;4.47;;;;;;;20.94;71.77;100259.12;1778539;80;21581;-63
2022/09/28 08:42:22;;;;;;;14.50;5.22;;;;;;;21.10;71.60;100261.27;1870736;76;21468;-62
2022/09/28 08:45:10;;;;;;;11.18;5.30;;;;;;;21.14;71.37;100264.01;1821749;76;21049;-63
2022/09/28 08:51:08;;;;;;;17.02;6.90;;;;;;;21.72;70.44;100270.36;1805441;76;21068;-62
2022/09/28 08:54:07;;;;;;;28.57;9.90;;;;;;;21.93;69.52;100264.33;1870765;76;21189;-62
2022/09/28 08:56:41;;;;;;;25.08;10.35;;;;;;;22.06;69.38;100260.46;1870026;76;21483;-62
2022/09/28 08:59:13;;;;;;;17.90;7.90;;;;;;;22.66;68.58;100254.23;1867389;76;21049;-62
2022/09/28 09:01:44;;;;;;;;;;;;;;;22.98;67.44;100258.77;1874334;76;21545;-63
2022/09/28 09:04:14;;;;;;;9.13;4.05;;;;;;;23.53;67.06;100268.54;1871049;77;20143;-63
2022/09/28 09:07:20;;;;;;;10.63;3.90;;;;;;;24.30;65.91;100276.31;1871565;77;21550;-60
2022/09/28 09:10:18;;;;;;;6.95;2.60;;;;;;;24.22;65.85;100273.59;1868156;76;21216;-62
2022/09/28 09:13:15;;;;;;;8.13;2.87;;;;;;;24.18;65.68;100259.61;1870837;76;21549;-62
2022/09/28 09:16:02;;;;;;;6.03;2.90;;;;;;;24.06;65.55;100255.50;1843231;76;21044;-63
2022/09/28 09:18:45;;;;;;;7.10;2.72;;;;;;;24.15;64.70;100251.02;1791388;80;21601;-62
2022/09/28 09:21:41;;;;;;;9.60;2.60;;;;;;;24.27;64.01;100245.20;1871463;76;21370;-62
2022/09/28 09:24:26;;;;;;;7.33;2.47;;;;;;;24.23;64.07;100241.63;1871796;76;21088;-62
2022/09/28 09:27:13;;;;;;;7.53;3.92;;;;;;;24.24;64.03;100243.34;1871603;76;21232;-62
2022/09/28 09:29:51;;;;;;;4.15;2.20;;;;;;;24.12;63.95;100244.09;1871572;77;21464;-62
2022/09/28 09:32:23;;;;;;;5.40;2.30;;;;;;;23.96;63.72;100241.31;1870520;76;21128;-63
2022/09/28 09:35:10;;;;;;;6.70;2.07;;;;;;;24.09;61.32;100237.72;1870558;76;21072;-63
2022/09/28 09:38:03;;;;;;;5.60;1.92;;;;;;;24.30;60.68;100249.91;1870862;76;21901;-63
2022/09/28 09:41:00;;;;;;;5.95;1.95;;;;;;;24.44;60.27;100247.97;1798296;80;21103;-62
2022/09/28 09:43:59;;;;;;;2.37;1.20;;;;;;;24.55;59.52;100254.43;1798175;80;21625;-63
2022/09/28 09:46:53;;;;;;;5.50;1.60;;;;;;;24.45;58.21;100260.40;1806871;79;21077;-63
2022/09/28 09:49:33;;;;;;;2.02;1.30;;;;;;;24.30;56.37;100262.86;1870851;76;21064;-63
2022/09/28 09:52:25;;;;;;;3.70;1.40;;;;;;;24.14;55.23;100260.91;1870029;76;21027;-63
2022/09/28 09:54:57;;;;;;;3.65;1.77;;;;;;;24.04;54.56;100257.52;1871550;76;21075;-63
2022/09/28 09:57:34;;;;;;;3.87;1.50;;;;;;;23.99;52.97;100255.28;1869853;76;21110;-63
2022/09/28 10:00:07;;;;;;;3.90;1.22;;;;;;;24.14;51.89;100252.84;1868639;76;21067;-63
2022/09/28 10:02:48;;;;;;;3.22;1.45;;;;;;;24.39;51.65;100263.75;1868509;76;21043;-63
2022/09/28 10:05:26;;;;;;;5.67;1.50;;;;;;;24.28;50.69;100275.12;1871642;76;21603;-63
2022/09/28 10:07:57;;;;;;;2.35;1.10;;;;;;;24.09;50.78;100272.67;1870708;76;21055;-63
2022/09/28 10:10:38;;;;;;;2.43;1.27;;;;;;;23.94;50.43;100274.24;1871541;76;21123;-63
2022/09/28 10:13:14;;;;;;;5.50;1.25;;;;;;;23.99;50.50;100269.23;1871292;76;21083;-63
2022/09/28 10:15:46;;;;;;;5.83;1.50;;;;;;;24.04;50.21;100261.55;1871453;77;21136;-63
2022/09/28 10:18:22;;;;;;;2.60;1.20;;;;;;;23.99;48.69;100263.35;1856448;77;21043;-63
2022/09/28 10:21:14;;;;;;;4.10;1.95;;;;;;;24.02;48.21;100259.52;1871329;77;21521;-62
2022/09/28 10:24:01;;;;;;;4.62;1.52;;;;;;;24.16;48.31;100264.80;1846122;76;21042;-62
2022/09/28 10:26:39;;;;;;;2.33;1.40;;;;;;;24.29;48.15;100266.57;1871407;77;21458;-62
2022/09/28 10:29:18;;;;;;;3.87;1.27;;;;;;;24.42;48.30;100264.75;1871057;76;21074;-62
2022/09/28 10:31:52;;;;;;;6.55;1.95;;;;;;;25.37;45.29;100273.47;1871496;77;21039;-62
2022/09/28 10:34:30;;;;;;;6.15;1.35;;;;;;;25.53;45.67;100269.11;1848807;76;21106;-62
2022/09/28 10:37:23;;;;;;;4.28;1.45;;;;;;;25.24;46.10;100274.48;1809850;79;21110;-63
2022/09/28 10:39:55;;;;;;;3.58;1.45;;;;;;;24.96;45.90;100272.04;1883397;76;21508;-61
2022/09/28 10:42:27;;;;;;;3.98;1.10;;;;;;;24.89;46.48;100280.95;1884408;76;21183;-61
2022/09/28 10:45:05;;;;;;;1.90;1.57;;;;;;;24.86;46.18;100269.98;1877815;76;21094;-62
2022/09/28 10:47:37;;;;;;;2.65;1.47;;;;;;;24.89;44.99;100271.52;1879138;75;21103;-62
2022/09/28 10:50:27;;;;;;;4.67;1.40;;;;;;;24.86;45.01;100280.75;1914132;75;21047;-63
2022/09/28 10:52:55;;;;;;;2.72;1.35;;;;;;;24.71;44.12;100281.05;1912467;75;21089;-63
2022/09/28 10:55:35;;;;;;;1.40;1.20;;;;;;;24.66;44.53;100254.13;1909050;75;21082;-62
2022/09/28 10:58:24;;;;;;;3.80;1.70;;;;;;;24.61;44.46;100275.81;1914576;75;21141;-63
2022/09/28 11:00:55;;;;;;;3.05;1.32;;;;;;;24.56;43.91;100285.70;1914606;75;21505;-63
2022/09/28 11:03:27;;;;;;;2.58;1.32;;;;;;;24.47;44.46;100294.23;1914592;75;21057;-61
2022/09/28 11:06:03;;;;;;;5.75;1.52;;;;;;;24.36;44.51;100297.18;1914589;75;21039;-61
2022/09/28 11:08:44;;;;;;;4.58;1.37;;;;;;;24.24;44.10;100287.20;1914523;75;21085;-61
2022/09/28 11:11:22;;;;;;;5.40;1.30;;;;;;;24.17;44.65;100297.42;1914012;75;21125;-62
2022/09/28 11:13:52;;;;;;;3.62;1.32;;;;;;;24.17;44.45;100294.23;1913157;75;21518;-62
2022/09/28 11:16:29;;;;;;;2.17;1.35;;;;;;;24.28;44.89;100303.36;1912787;75;21085;-62
2022/09/28 11:19:00;;;;;;;3.85;1.72;;;;;;;24.31;44.32;100282.52;1914562;75;21442;-63
2022/09/28 11:21:31;;;;;;;2.62;1.42;;;;;;;24.43;44.51;100283.94;1914503;74;21551;-62
2022/09/28 11:24:16;;;;;;;2.83;1.60;;;;;;;24.49;44.63;100291.36;1911949;75;21062;-62
2022/09/28 11:26:48;;;;;;;1.82;1.47;;;;;;;24.49;44.64;100292.70;1914649;75;21059;-62
2022/09/28 11:29:27;;;;;;;3.17;1.62;;;;;;;24.48;44.32;100295.06;1914075;75;21572;-62
2022/09/28 11:32:03;;;;;;;1.98;1.45;;;;;;;24.52;44.68;100295.59;1863764;75;21147;-61
2022/09/28 11:34:39;;;;;;;4.80;2.00;;;;;;;24.54;44.06;100293.61;1914223;75;21073;-62
2022/09/28 11:37:39;;;;;;;3.75;1.57;;;;;;;24.52;43.70;100285.70;1914518;75;21477;-63
2022/09/28 11:40:17;;;;;;;2.52;1.40;;;;;;;24.53;44.51;100289.22;1889354;75;21160;-61
2022/09/28 11:43:18;;;;;;;4.15;1.30;;;;;;;24.47;44.24;100288.85;1894236;75;21140;-62
2022/09/28 11:45:56;;;;;;;4.10;1.85;;;;;;;24.43;44.46;100292.02;1856028;76;21137;-61
2022/09/28 11:48:44;;;;;;;3.30;1.62;;;;;;;24.46;44.75;100294.39;1856554;76;21563;-63
2022/09/28 11:51:24;;;;;;;6.03;1.57;;;;;;;24.41;44.41;100277.87;1870919;77;21065;-63
2022/09/28 11:54:03;;;;;;;2.77;1.57;;;;;;;24.39;44.79;100282.58;1870891;76;21510;-63
2022/09/28 11:56:38;;;;;;;3.10;1.77;;;;;;;24.39;44.82;100285.27;1870811;76;21107;-63
2022/09/28 11:59:13;;;;;;;1.95;1.30;;;;;;;24.37;44.84;100278.70;1870961;77;21138;-63
2022/09/28 12:01:51;;;;;;;7.42;1.52;;;;;;;24.38;44.72;100278.19;1871178;76;21071;-63
2022/09/28 12:04:27;;;;;;;4.12;1.45;;;;;;;24.41;44.67;100273.33;1869902;77;21106;-61
2022/09/28 12:07:05;;;;;;;3.40;1.40;;;;;;;24.50;44.48;100278.26;1871204;75;21134;-61